East Worcester, NY (12064)

8:40 AM EST on December 03, 2016 (GMT -0500)
Upper Franzen Rd | | Change Station

Elev 1834 ft 42.64 °N, 74.61 °W | Updated 12 minutes ago

Mostly Cloudy
Mostly Cloudy
30.0 °F
Feels Like 18 °F
N
17.6
Wind Variable Wind from WNW

Today
High -- | Low -- °F
--% Chance of Precip.
Yesterday
High -- | Low -- °F
Precip. -- in
Pressure 29.98 in
Visibility 10.0 miles
Clouds Few 2600 ft
Mostly Cloudy 3600 ft
Mostly Cloudy 10000 ft
Windchill 18 °F
Dew Point 27 °F
Humidity 90%
Rainfall 0.03 in
Snow Depth Not available.
7:11 AM 4:25 PM
Waxing Crescent, 15% visible
METAR KALB 031251Z 30017G25KT 10SM FEW026 BKN036 BKN100 03/M03 A2997 RMK AO2 SLP151 BKN036 V SCT T00281028
Pressure 29.98 in
Visibility 10.0 miles
Clouds Few 2600 ft
Mostly Cloudy 3600 ft
Mostly Cloudy 10000 ft
Windchill 18 °F
Dew Point 27 °F
Humidity 90%
Rainfall 0.03 in
Snow Depth Not available.
7:11 AM 4:25 PM
Waxing Crescent, 15% visible
METAR KALB 031251Z 30017G25KT 10SM FEW026 BKN036 BKN100 03/M03 A2997 RMK AO2 SLP151 BKN036 V SCT T00281028

10-Day Weather Forecast

Almanac

Astronomy

Dec. 03, 2016 Rise Set
Actual Time
Civil Twilight
Nautical Twilight
Astronomical Twilight
Moon
Length of Visible Light
Length of Day
Tomorrow will be .
, % of the Moon is Illuminated

Today's Extremes

State Highs State Lows

Community

WunderPhotos

Upload Photos

1,955,447 photos uploaded!

WunderBlog® & News

Nearby

Air Quality

  Air Quality AQ Index Pollutant
Not available.

Snow Depth

Station Depth Elevation

Earthquake Activity

City Distance Mag. Time & Date
Minimum magnitude displayed is 2.5.

Coastal Water Temperatures

Place Temperature

Stations

Nearby Weather Stations

Station Location Temp. Windchill Dew Point Humidity Wind Precip. Elev Updated Type
                   

Watches & Warnings

There are currently no watches in effect.